Time;durP1;ratioP1;P1;durP2;ratioP2;P2;SDS_P1;SDS_P2;PMS_P1;PMS_P2;Temp;Humidity;BMP_temperature;BMP_pressure;BME280_temperature;BME280_humidity;BME280_pressure;Samples;Min_cycle;Max_cycle;Signal;HPM_P1;HPM_P2
2023/11/27 00:02:03;;;;;;;12.38;6.18;;;-1.60;99.90;;;;;;4977139;28;20034;-56
2023/11/27 00:04:29;;;;;;;12.70;7.47;;;-1.50;99.90;;;;;;4976409;28;20034;-56
2023/11/27 00:06:55;;;;;;;15.23;7.88;;;-1.50;99.90;;;;;;4978418;28;20041;-55
2023/11/27 00:09:21;;;;;;;15.50;7.95;;;-1.40;99.90;;;;;;4984118;28;20453;-56
2023/11/27 00:11:47;;;;;;;10.85;6.20;;;-1.40;99.90;;;;;;4982225;28;20045;-56
2023/11/27 00:14:12;;;;;;;15.48;6.50;;;-1.30;99.90;;;;;;4977962;28;20030;-56
2023/11/27 00:16:38;;;;;;;11.32;6.22;;;-1.30;99.90;;;;;;4978407;28;20038;-56
2023/11/27 00:19:03;;;;;;;15.00;7.43;;;-1.30;99.90;;;;;;4976811;28;20018;-56
2023/11/27 00:21:29;;;;;;;15.73;6.82;;;-1.20;99.90;;;;;;4977860;28;20062;-58
2023/11/27 00:23:54;;;;;;;11.95;6.10;;;-1.20;99.90;;;;;;4977356;28;20475;-56
2023/11/27 00:26:20;;;;;;;12.77;7.22;;;-1.20;99.90;;;;;;4980898;28;20022;-54
2023/11/27 00:28:45;;;;;;;16.25;7.10;;;-1.20;99.90;;;;;;4978648;28;20130;-55
2023/11/27 00:31:11;;;;;;;11.90;6.15;;;-1.20;99.90;;;;;;4982571;28;20153;-56
2023/11/27 00:33:36;;;;;;;12.68;6.75;;;-1.10;99.90;;;;;;4979938;28;20106;-58
2023/11/27 00:36:03;;;;;;;15.80;7.32;;;-1.10;99.90;;;;;;4974684;28;20089;-57
2023/11/27 00:38:28;;;;;;;10.55;6.03;;;-1.10;99.90;;;;;;4981901;28;20034;-56
2023/11/27 00:40:54;;;;;;;9.80;6.53;;;-1.10;99.90;;;;;;4975284;28;20106;-56
2023/11/27 00:43:20;;;;;;;12.60;7.70;;;-1.10;99.90;;;;;;4979697;28;20049;-56
2023/11/27 00:45:45;;;;;;;10.48;6.15;;;-1.10;99.90;;;;;;4979906;28;20100;-57
2023/11/27 00:48:11;;;;;;;13.35;7.18;;;-1.10;99.90;;;;;;4980107;28;20039;-56
2023/11/27 00:50:37;;;;;;;11.10;6.35;;;-1.10;99.90;;;;;;4979928;28;20026;-56
2023/11/27 00:53:03;;;;;;;14.20;7.57;;;-1.10;99.90;;;;;;4981873;28;20486;-57
2023/11/27 00:55:29;;;;;;;11.05;5.88;;;-1.10;99.90;;;;;;4979930;28;20022;-56
2023/11/27 00:57:54;;;;;;;12.02;6.10;;;-1.00;99.90;;;;;;4980265;28;20502;-57
2023/11/27 01:00:20;;;;;;;9.18;5.80;;;-1.00;99.90;;;;;;4975840;28;20503;-55
2023/11/27 01:02:45;;;;;;;13.27;6.47;;;-1.00;99.90;;;;;;4979720;28;20109;-56
2023/11/27 01:05:14;;;;;;;13.60;6.10;;;-1.00;99.90;;;;;;4979907;28;20714;-55
2023/11/27 01:07:40;;;;;;;7.20;5.05;;;-1.00;99.90;;;;;;4981804;28;20022;-57
2023/11/27 01:10:07;;;;;;;12.52;6.70;;;-1.00;99.90;;;;;;4977899;28;20037;-56
2023/11/27 01:12:34;;;;;;;14.48;7.07;;;-1.00;99.90;;;;;;4979912;28;20482;-56
2023/11/27 01:15:03;;;;;;;11.23;6.57;;;-1.00;99.90;;;;;;4979709;28;20500;-56
2023/11/27 01:17:28;;;;;;;8.88;5.65;;;-1.10;99.90;;;;;;4979885;28;20539;-56
2023/11/27 01:19:54;;;;;;;10.60;6.78;;;-1.10;99.90;;;;;;4975828;28;20030;-55
2023/11/27 01:22:19;;;;;;;11.98;6.60;;;-1.10;99.90;;;;;;4979746;28;20056;-55
2023/11/27 01:24:45;;;;;;;10.95;6.25;;;-1.10;99.90;;;;;;4981505;28;20154;-57
2023/11/27 01:27:10;;;;;;;12.82;6.43;;;-1.10;99.90;;;;;;4981368;28;20031;-55
2023/11/27 01:29:36;;;;;;;6.40;4.65;;;-1.10;99.90;;;;;;4979592;28;20101;-54
2023/11/27 01:32:01;;;;;;;11.30;5.85;;;-1.10;99.90;;;;;;4982849;28;20034;-55
2023/11/27 01:34:27;;;;;;;12.98;6.55;;;-1.10;99.90;;;;;;4983105;28;20132;-56
2023/11/27 01:36:52;;;;;;;12.68;6.90;;;-1.10;99.90;;;;;;4980288;28;20052;-57
2023/11/27 01:39:18;;;;;;;13.02;7.32;;;-1.20;99.90;;;;;;4982370;28;20027;-56
2023/11/27 01:41:44;;;;;;;9.18;5.20;;;-1.20;99.90;;;;;;4982532;28;20030;-58
2023/11/27 01:44:09;;;;;;;8.90;5.65;;;-1.20;99.90;;;;;;4982708;28;20093;-55
2023/11/27 01:46:42;;;;;;;10.90;6.38;;;-1.20;99.90;;;;;;4983010;28;20041;-58
2023/11/27 01:49:08;;;;;;;10.85;6.55;;;-1.30;99.90;;;;;;4981464;28;20026;-59
2023/11/27 01:51:34;;;;;;;11.15;6.88;;;-1.30;99.90;;;;;;4981547;28;20042;-60
2023/11/27 01:53:59;;;;;;;17.65;6.32;;;-1.40;99.90;;;;;;4982924;28;20278;-60
2023/11/27 01:56:28;;;;;;;9.55;6.10;;;-1.30;99.90;;;;;;4982944;28;20041;-60
2023/11/27 01:58:57;;;;;;;14.25;6.50;;;-1.40;99.90;;;;;;4982807;28;20034;-59
2023/11/27 02:01:23;;;;;;;14.68;5.97;;;-1.40;99.90;;;;;;4982746;28;20038;-59
2023/11/27 02:03:48;;;;;;;9.32;5.70;;;-1.50;99.90;;;;;;4984480;28;20018;-60
2023/11/27 02:06:13;;;;;;;11.43;5.85;;;-1.50;99.90;;;;;;4982588;28;20697;-60
2023/11/27 02:08:40;;;;;;;10.60;5.70;;;-1.50;99.90;;;;;;4982661;28;20465;-60
2023/11/27 02:11:06;;;;;;;12.57;6.43;;;-1.60;99.90;;;;;;4982677;28;20026;-61
2023/11/27 02:13:31;;;;;;;9.50;5.43;;;-1.70;99.90;;;;;;4982572;28;20038;-60
2023/11/27 02:15:57;;;;;;;12.73;6.72;;;-1.80;99.90;;;;;;4982534;28;20018;-59
2023/11/27 02:18:22;;;;;;;12.45;6.13;;;-1.80;99.90;;;;;;4984240;28;20026;-60
2023/11/27 02:20:48;;;;;;;12.38;5.25;;;-1.90;99.90;;;;;;4979640;28;20031;-60
2023/11/27 02:23:15;;;;;;;11.10;5.90;;;-2.00;99.90;;;;;;4981538;28;20028;-59
2023/11/27 02:25:40;;;;;;;7.38;4.10;;;-2.10;99.90;;;;;;4982430;28;20034;-60
2023/11/27 02:28:07;;;;;;;11.23;5.70;;;-2.20;99.90;;;;;;4982256;28;20049;-60
2023/11/27 02:30:32;;;;;;;8.27;4.20;;;-2.20;99.90;;;;;;4982130;28;20645;-60
2023/11/27 02:32:58;;;;;;;9.82;5.75;;;-2.30;99.90;;;;;;4982267;28;20054;-59
2023/11/27 02:35:23;;;;;;;9.65;5.50;;;-2.40;99.90;;;;;;4984137;28;20082;-60
2023/11/27 02:37:49;;;;;;;9.05;5.78;;;-2.50;99.90;;;;;;4979209;28;20430;-60
2023/11/27 02:40:16;;;;;;;10.98;5.78;;;-2.50;99.90;;;;;;4982115;28;20058;-59
2023/11/27 02:42:42;;;;;;;12.65;6.10;;;-2.60;99.90;;;;;;4976584;28;20030;-60
2023/11/27 02:45:11;;;;;;;12.50;6.55;;;-2.70;99.90;;;;;;4981589;28;20046;-60
2023/11/27 02:47:37;;;;;;;12.00;5.47;;;-2.70;99.90;;;;;;4981815;28;20041;-56
2023/11/27 02:50:08;;;;;;;10.15;6.15;;;-2.80;99.90;;;;;;4982188;28;20026;-58
2023/11/27 02:52:34;;;;;;;9.50;5.25;;;-2.90;99.90;;;;;;4981813;28;20077;-58
2023/11/27 02:55:00;;;;;;;8.80;5.38;;;-3.00;99.90;;;;;;4983331;28;20393;-58
2023/11/27 02:57:26;;;;;;;9.77;5.38;;;-3.00;99.90;;;;;;4981916;28;20126;-58
2023/11/27 02:59:51;;;;;;;8.10;5.07;;;-3.10;99.90;;;;;;4981636;28;20105;-58
2023/11/27 03:02:17;;;;;;;8.70;5.40;;;-3.10;99.90;;;;;;4981471;28;20654;-57
2023/11/27 03:04:42;;;;;;;9.48;5.40;;;-3.20;99.90;;;;;;4977805;28;20023;-56
2023/11/27 03:07:08;;;;;;;9.10;4.55;;;-3.20;99.90;;;;;;4981527;28;20113;-57
2023/11/27 03:09:34;;;;;;;10.70;4.95;;;-3.30;99.90;;;;;;4983489;28;20105;-58
2023/11/27 03:12:00;;;;;;;6.80;4.65;;;-3.30;99.90;;;;;;4982445;28;20474;-58
2023/11/27 03:14:26;;;;;;;8.82;5.60;;;-3.40;99.90;;;;;;4979917;28;20030;-57
2023/11/27 03:16:51;;;;;;;11.43;5.85;;;-3.40;99.90;;;;;;4981264;28;20493;-57
2023/11/27 03:19:17;;;;;;;10.90;5.13;;;-3.40;99.90;;;;;;4981078;28;20030;-58
2023/11/27 03:21:43;;;;;;;9.57;5.28;;;-3.50;99.90;;;;;;4981589;28;20030;-58
2023/11/27 03:24:09;;;;;;;9.10;5.00;;;-3.50;99.90;;;;;;4978981;28;20034;-57
2023/11/27 03:26:35;;;;;;;9.95;5.50;;;-3.50;99.90;;;;;;4981289;28;20612;-58
2023/11/27 03:29:01;;;;;;;10.65;4.20;;;-3.50;99.90;;;;;;4981136;28;20054;-58
2023/11/27 03:31:27;;;;;;;6.97;4.25;;;-3.60;99.90;;;;;;4979827;28;20513;-58
2023/11/27 03:33:52;;;;;;;9.60;4.93;;;-3.60;99.90;;;;;;4981150;28;20027;-58
2023/11/27 03:36:18;;;;;;;7.72;4.53;;;-3.70;99.90;;;;;;4975049;28;20045;-56
2023/11/27 03:38:44;;;;;;;5.80;3.80;;;-3.70;99.90;;;;;;4982876;28;20022;-59
2023/11/27 03:41:21;;;;;;;11.60;4.70;;;-3.70;99.90;;;;;;4980872;28;20050;-58
2023/11/27 03:43:49;;;;;;;10.23;5.10;;;-3.80;99.90;;;;;;4976090;28;20030;-57
2023/11/27 03:46:15;;;;;;;6.65;4.63;;;-3.80;99.90;;;;;;4977101;28;20047;-58
2023/11/27 03:48:41;;;;;;;7.90;4.88;;;-3.80;99.90;;;;;;4974184;28;20037;-58
2023/11/27 03:51:08;;;;;;;7.32;4.50;;;-3.80;99.90;;;;;;4980075;28;20041;-59
2023/11/27 03:53:34;;;;;;;13.57;5.45;;;-3.90;99.90;;;;;;4980608;28;20029;-58
2023/11/27 03:55:59;;;;;;;11.98;5.20;;;-3.90;99.90;;;;;;4980590;28;20027;-58
2023/11/27 03:58:25;;;;;;;13.65;6.22;;;-3.90;99.90;;;;;;4980525;28;20085;-57
2023/11/27 04:00:51;;;;;;;9.65;5.78;;;-4.00;99.90;;;;;;4980644;28;20032;-58
2023/11/27 04:03:16;;;;;;;8.90;5.32;;;-4.00;99.90;;;;;;4982328;28;20026;-57
2023/11/27 04:05:42;;;;;;;9.13;5.60;;;-4.00;99.90;;;;;;4980638;28;20049;-58
2023/11/27 04:08:08;;;;;;;7.97;5.30;;;-4.00;99.90;;;;;;4980431;28;20042;-58
2023/11/27 04:10:34;;;;;;;11.75;6.47;;;-4.10;99.90;;;;;;4980377;28;20026;-57
2023/11/27 04:12:59;;;;;;;8.23;5.40;;;-4.10;99.90;;;;;;4978156;28;20034;-58
2023/11/27 04:15:25;;;;;;;10.52;6.15;;;-4.00;99.90;;;;;;4981504;28;20037;-58
2023/11/27 04:17:50;;;;;;;9.20;4.82;;;-4.00;99.90;;;;;;4978440;28;20026;-59
2023/11/27 04:20:16;;;;;;;7.57;5.20;;;-4.00;99.90;;;;;;4980842;28;20033;-57
2023/11/27 04:22:45;;;;;;;10.63;6.32;;;-4.00;99.90;;;;;;4980343;28;20041;-58
2023/11/27 04:25:11;;;;;;;10.38;5.40;;;-4.00;99.90;;;;;;4976373;28;20034;-59
2023/11/27 04:27:36;;;;;;;11.15;5.32;;;-3.90;99.90;;;;;;4980135;28;20046;-58
2023/11/27 04:30:05;;;;;;;11.73;5.50;;;-3.90;99.90;;;;;;4980536;28;20134;-57
2023/11/27 04:32:30;;;;;;;12.00;5.03;;;-3.80;99.90;;;;;;4980270;28;20557;-58
2023/11/27 04:34:56;;;;;;;7.97;4.60;;;-3.80;99.90;;;;;;4978404;28;20106;-56
2023/11/27 04:37:21;;;;;;;8.70;4.85;;;-3.70;99.90;;;;;;4974767;28;20026;-57
2023/11/27 04:39:47;;;;;;;8.38;4.82;;;-3.60;99.90;;;;;;4980358;28;20037;-58
2023/11/27 04:42:12;;;;;;;7.30;4.90;;;-3.60;99.90;;;;;;4980229;28;20093;-58
2023/11/27 04:44:39;;;;;;;9.27;4.70;;;-3.50;99.90;;;;;;4978536;28;20041;-58
2023/11/27 04:47:05;;;;;;;6.40;4.45;;;-3.40;99.90;;;;;;4981994;28;20053;-58
2023/11/27 04:49:31;;;;;;;7.53;4.00;;;-3.40;99.90;;;;;;4978182;28;20113;-57
2023/11/27 04:51:56;;;;;;;7.28;4.32;;;-3.30;99.90;;;;;;4980147;28;20062;-56
2023/11/27 04:54:22;;;;;;;8.68;4.93;;;-3.30;99.90;;;;;;4980073;28;20042;-58
2023/11/27 04:56:47;;;;;;;8.07;4.65;;;-3.20;99.90;;;;;;4980406;28;20038;-58
2023/11/27 04:59:13;;;;;;;6.05;4.00;;;-3.20;99.90;;;;;;4979950;28;20030;-58
2023/11/27 05:01:39;;;;;;;9.85;5.03;;;-3.10;99.90;;;;;;4979815;28;20042;-57
2023/11/27 05:04:05;;;;;;;10.85;5.15;;;-3.00;99.90;;;;;;4981707;28;20057;-58
2023/11/27 05:06:30;;;;;;;7.78;4.45;;;-3.00;99.90;;;;;;4982628;28;20035;-57
2023/11/27 05:08:56;;;;;;;11.15;4.80;;;-2.90;99.90;;;;;;4983856;28;20125;-58
2023/11/27 05:11:22;;;;;;;8.95;4.72;;;-2.90;99.90;;;;;;4983708;28;20042;-58
2023/11/27 05:13:48;;;;;;;8.45;4.75;;;-2.80;99.90;;;;;;4980174;28;20022;-57
2023/11/27 05:16:14;;;;;;;8.18;4.57;;;-2.80;99.90;;;;;;4981890;28;20030;-58
2023/11/27 05:18:42;;;;;;;8.05;4.80;;;-2.80;99.90;;;;;;4983039;28;20429;-58
2023/11/27 05:21:13;;;;;;;10.23;5.45;;;-2.80;99.90;;;;;;4984411;28;20026;-59
2023/11/27 05:23:43;;;;;;;7.10;4.28;;;-2.70;99.90;;;;;;4976929;28;20454;-56
2023/11/27 05:26:09;;;;;;;10.00;5.22;;;-2.60;99.90;;;;;;4979323;28;20026;-58
2023/11/27 05:28:35;;;;;;;8.38;4.47;;;-2.60;99.90;;;;;;4982262;28;20057;-58
2023/11/27 05:31:01;;;;;;;9.95;5.47;;;-2.50;99.90;;;;;;4982239;28;20054;-57
2023/11/27 05:33:26;;;;;;;7.10;5.00;;;-2.50;99.90;;;;;;4985460;28;20069;-57
2023/11/27 05:35:52;;;;;;;9.02;4.75;;;-2.40;99.90;;;;;;4981834;28;20077;-51
2023/11/27 05:38:18;;;;;;;10.80;4.82;;;-2.50;99.90;;;;;;4975636;28;20520;-50
2023/11/27 05:40:44;;;;;;;9.88;4.88;;;-2.40;99.90;;;;;;4983922;28;20026;-50
2023/11/27 05:43:11;;;;;;;17.95;7.50;;;-2.40;99.90;;;;;;4981678;28;20363;-52
2023/11/27 05:45:37;;;;;;;9.60;5.95;;;-2.40;99.90;;;;;;4981981;28;20496;-69
2023/11/27 05:48:05;;;;;;;10.32;5.50;;;-2.30;99.90;;;;;;4982106;28;20029;-69
2023/11/27 05:50:31;;;;;;;10.93;6.07;;;-2.30;99.90;;;;;;4982001;28;20592;-69
2023/11/27 05:52:57;;;;;;;10.05;5.43;;;-2.30;99.90;;;;;;4986086;28;20093;-68
2023/11/27 05:55:23;;;;;;;11.88;5.70;;;-2.20;99.90;;;;;;4980703;28;20038;-67
2023/11/27 05:57:48;;;;;;;9.93;5.72;;;-2.20;99.90;;;;;;4980445;28;20034;-68
2023/11/27 06:00:14;;;;;;;9.30;4.95;;;-2.10;99.90;;;;;;4982660;28;20034;-67
2023/11/27 06:02:39;;;;;;;11.85;5.97;;;-2.10;99.90;;;;;;4981878;28;20038;-68
2023/11/27 06:05:05;;;;;;;11.52;6.45;;;-2.10;99.90;;;;;;4982048;28;20038;-68
2023/11/27 06:07:31;;;;;;;11.57;5.55;;;-2.10;99.90;;;;;;4981986;28;20066;-68
2023/11/27 06:09:56;;;;;;;10.35;5.97;;;-2.10;99.90;;;;;;4980830;28;20072;-68
2023/11/27 06:12:25;;;;;;;10.48;5.57;;;-2.00;99.90;;;;;;4982186;28;20411;-67
2023/11/27 06:14:51;;;;;;;10.45;5.60;;;-2.00;99.90;;;;;;4981190;28;20030;-68
2023/11/27 06:17:17;;;;;;;10.38;6.03;;;-2.00;99.90;;;;;;4983706;28;20096;-68
2023/11/27 06:19:43;;;;;;;11.70;5.10;;;-1.90;99.90;;;;;;4981974;28;20035;-68
2023/11/27 06:22:09;;;;;;;9.48;4.72;;;-1.90;99.90;;;;;;4981732;28;20026;-68
2023/11/27 06:24:35;;;;;;;10.52;5.43;;;-1.90;99.90;;;;;;4981694;28;20440;-69
2023/11/27 06:27:00;;;;;;;11.05;5.47;;;-1.80;99.90;;;;;;4981404;28;20522;-68
2023/11/27 06:29:26;;;;;;;11.63;5.93;;;-1.80;99.90;;;;;;4981754;28;20098;-68
2023/11/27 06:31:52;;;;;;;8.10;5.10;;;-1.70;99.90;;;;;;4982447;28;20022;-68
2023/11/27 06:34:17;;;;;;;8.38;5.40;;;-1.70;99.90;;;;;;4981744;28;20038;-68
2023/11/27 06:36:43;;;;;;;12.60;5.80;;;-1.60;99.90;;;;;;4976019;28;20366;-68
2023/11/27 06:39:09;;;;;;;10.65;6.20;;;-1.60;99.90;;;;;;4981864;28;20367;-68
2023/11/27 06:41:35;;;;;;;16.60;7.75;;;-1.60;99.90;;;;;;4981688;28;20494;-68
2023/11/27 06:44:00;;;;;;;17.48;8.40;;;-1.50;99.90;;;;;;4982292;28;20038;-69
2023/11/27 06:46:29;;;;;;;14.63;7.07;;;-1.50;99.90;;;;;;4979618;28;20030;-68
2023/11/27 06:48:55;;;;;;;12.77;7.53;;;-1.50;99.90;;;;;;4981443;28;20076;-69
2023/11/27 06:51:20;;;;;;;11.05;7.05;;;-1.50;99.90;;;;;;4981704;28;20537;-68
2023/11/27 06:53:46;;;;;;;11.10;6.60;;;-1.50;99.90;;;;;;4981399;28;20037;-68
2023/11/27 06:56:12;;;;;;;11.05;6.15;;;-1.50;99.90;;;;;;4981526;28;20022;-68
2023/11/27 06:58:38;;;;;;;12.20;6.93;;;-1.50;99.90;;;;;;4980121;28;20035;-68
2023/11/27 07:01:08;;;;;;;11.18;6.50;;;-1.50;99.90;;;;;;4983240;28;20212;-69
2023/11/27 07:03:33;;;;;;;16.65;6.47;;;-1.50;99.90;;;;;;4979589;28;20085;-69
2023/11/27 07:05:59;;;;;;;10.00;6.03;;;-1.50;99.90;;;;;;4981339;28;20638;-69
2023/11/27 07:08:24;;;;;;;13.55;6.78;;;-1.50;99.90;;;;;;4981445;28;20038;-68
2023/11/27 07:10:50;;;;;;;17.98;7.47;;;-1.50;99.90;;;;;;4981277;28;20033;-69
2023/11/27 07:13:15;;;;;;;18.48;8.55;;;-1.50;99.90;;;;;;4980885;28;20042;-69
2023/11/27 07:15:41;;;;;;;13.13;6.90;;;-1.40;99.90;;;;;;4981209;28;20393;-67
2023/11/27 07:18:06;;;;;;;13.07;7.47;;;-1.40;99.90;;;;;;4982959;28;20026;-69
2023/11/27 07:20:32;;;;;;;14.65;6.60;;;-1.40;99.90;;;;;;4981017;28;20037;-69
2023/11/27 07:22:58;;;;;;;14.00;7.53;;;-1.30;99.90;;;;;;4980903;28;20018;-69
2023/11/27 07:25:24;;;;;;;16.70;7.18;;;-1.30;99.90;;;;;;4980813;28;20552;-70
2023/11/27 07:27:49;;;;;;;15.38;7.60;;;-1.30;99.90;;;;;;4980670;28;20058;-69
2023/11/27 07:30:16;;;;;;;11.30;6.53;;;-1.20;99.90;;;;;;4980961;28;20136;-68
2023/11/27 07:32:42;;;;;;;12.10;5.93;;;-1.20;99.90;;;;;;4980882;28;20487;-68
2023/11/27 07:35:10;;;;;;;13.07;6.88;;;-1.10;99.90;;;;;;4982550;28;20360;-69
2023/11/27 07:37:37;;;;;;;11.95;6.65;;;-1.10;99.90;;;;;;4976586;28;20018;-68
2023/11/27 07:40:03;;;;;;;10.85;5.78;;;-1.10;99.90;;;;;;4974969;28;20498;-68
2023/11/27 07:42:29;;;;;;;9.15;5.65;;;-1.10;99.90;;;;;;4980681;28;20030;-68
2023/11/27 07:44:54;;;;;;;9.55;5.65;;;-1.20;99.90;;;;;;4980392;28;20040;-68
2023/11/27 07:47:22;;;;;;;12.57;7.35;;;-1.10;99.90;;;;;;4980357;28;20064;-68
2023/11/27 07:49:48;;;;;;;16.20;7.88;;;-1.10;99.90;;;;;;4980467;28;20053;-68
2023/11/27 07:52:13;;;;;;;11.07;6.95;;;-1.10;99.90;;;;;;4982250;28;20603;-68
2023/11/27 07:54:41;;;;;;;11.43;7.30;;;-1.10;99.90;;;;;;4980394;28;20101;-68
2023/11/27 07:57:07;;;;;;;15.25;8.52;;;-1.10;99.90;;;;;;4980468;28;20045;-69
2023/11/27 07:59:32;;;;;;;15.20;8.07;;;-1.10;99.90;;;;;;4996192;28;20142;-68
2023/11/27 08:02:00;;;;;;;11.73;7.07;;;-1.10;99.90;;;;;;4980247;28;20045;-68
2023/11/27 08:04:25;;;;;;;19.40;8.23;;;-1.10;99.90;;;;;;4980315;28;20347;-68
2023/11/27 08:06:51;;;;;;;14.38;6.82;;;-1.00;99.90;;;;;;4980045;28;20041;-68
2023/11/27 08:09:17;;;;;;;15.30;7.65;;;-1.00;99.90;;;;;;4980106;28;20077;-67
2023/11/27 08:11:42;;;;;;;12.75;7.35;;;-1.00;99.90;;;;;;4982049;28;20027;-68
2023/11/27 08:14:10;;;;;;;12.63;7.70;;;-1.00;99.90;;;;;;4980025;28;20348;-69
2023/11/27 08:16:35;;;;;;;13.38;7.18;;;-0.90;99.90;;;;;;4979855;28;20925;-69
2023/11/27 08:19:01;;;;;;;16.70;8.43;;;-0.80;99.90;;;;;;4978299;28;20033;-68
2023/11/27 08:21:26;;;;;;;15.95;8.65;;;-0.60;99.90;;;;;;4978162;28;20394;-68
2023/11/27 08:23:52;;;;;;;16.02;8.27;;;-0.40;99.90;;;;;;4979928;28;20338;-68
2023/11/27 08:26:19;;;;;;;18.00;8.25;;;-0.20;99.90;;;;;;4979888;28;20037;-68
2023/11/27 08:28:45;;;;;;;19.00;10.45;;;0.00;99.90;;;;;;4981524;28;20181;-68
2023/11/27 08:31:11;;;;;;;17.23;9.95;;;0.10;99.90;;;;;;4979836;28;21091;-68
2023/11/27 08:33:37;;;;;;;18.02;9.52;;;0.30;99.90;;;;;;4979883;28;20061;-68
2023/11/27 08:36:03;;;;;;;16.77;9.18;;;0.40;99.90;;;;;;4972583;28;20030;-68
2023/11/27 08:38:30;;;;;;;15.80;9.75;;;0.50;99.90;;;;;;4979669;28;20439;-68
2023/11/27 08:40:56;;;;;;;15.30;9.00;;;0.70;99.90;;;;;;4983304;28;20050;-68
2023/11/27 08:43:22;;;;;;;18.23;9.98;;;0.80;99.90;;;;;;4983666;28;20413;-68
2023/11/27 08:45:48;;;;;;;15.25;9.30;;;0.90;99.90;;;;;;4985456;28;20042;-68
2023/11/27 08:48:15;;;;;;;16.05;8.77;;;1.00;99.90;;;;;;4983641;28;20530;-65
2023/11/27 08:50:41;;;;;;;12.10;8.18;;;1.10;99.90;;;;;;4983781;28;20027;-60
2023/11/27 08:53:09;;;;;;;14.50;8.77;;;1.10;99.90;;;;;;4983617;28;20080;-60
2023/11/27 08:55:34;;;;;;;17.23;9.32;;;1.10;99.90;;;;;;4982298;28;20721;-60
2023/11/27 08:58:03;;;;;;;15.00;8.35;;;1.00;99.90;;;;;;4983638;28;20164;-59
2023/11/27 09:00:29;;;;;;;11.68;6.82;;;1.00;99.90;;;;;;4983422;28;20034;-59
2023/11/27 09:02:56;;;;;;;13.77;7.05;;;0.90;99.90;;;;;;4983899;28;20030;-59
2023/11/27 09:05:26;;;;;;;13.38;7.55;;;0.80;99.90;;;;;;4981321;28;20062;-59
2023/11/27 09:07:53;;;;;;;16.70;8.38;;;0.70;99.90;;;;;;4983484;28;20042;-60
2023/11/27 09:10:20;;;;;;;10.65;6.57;;;0.60;99.90;;;;;;4983215;28;20438;-59
2023/11/27 09:12:46;;;;;;;14.05;7.60;;;0.60;99.90;;;;;;4983335;28;20033;-59
2023/11/27 09:15:12;;;;;;;14.35;8.30;;;0.50;99.90;;;;;;4983385;28;20487;-60
2023/11/27 09:17:38;;;;;;;13.18;7.88;;;0.50;99.90;;;;;;4983107;28;20054;-60
2023/11/27 09:20:05;;;;;;;14.18;7.85;;;0.50;99.90;;;;;;4983176;28;20237;-59
2023/11/27 09:22:31;;;;;;;13.55;7.60;;;0.50;99.90;;;;;;4983111;28;20030;-55
2023/11/27 09:24:57;;;;;;;15.05;7.47;;;0.40;99.90;;;;;;4985117;28;20443;-60
2023/11/27 09:27:23;;;;;;;14.70;8.50;;;0.40;99.90;;;;;;4982817;28;20035;-59
2023/11/27 09:29:48;;;;;;;20.50;9.05;;;0.40;99.90;;;;;;4982949;28;20076;-59
2023/11/27 09:32:14;;;;;;;14.13;8.07;;;0.40;99.90;;;;;;4983006;28;20026;-59
2023/11/27 09:34:39;;;;;;;13.25;7.47;;;0.30;99.90;;;;;;4983221;28;20031;-59
2023/11/27 09:37:05;;;;;;;15.75;8.05;;;0.30;99.90;;;;;;4977976;28;20023;-60
2023/11/27 09:39:31;;;;;;;14.80;7.97;;;0.30;99.90;;;;;;4980771;28;20034;-59
2023/11/27 09:41:57;;;;;;;16.40;7.57;;;0.20;99.90;;;;;;4982576;28;20026;-60
2023/11/27 09:44:23;;;;;;;15.52;8.02;;;0.20;99.90;;;;;;4982569;28;20116;-59
2023/11/27 09:46:50;;;;;;;16.77;7.93;;;0.20;99.90;;;;;;4982669;28;20026;-59
2023/11/27 09:49:23;;;;;;;14.55;8.30;;;0.20;99.90;;;;;;4982549;28;20023;-59
2023/11/27 09:51:52;;;;;;;22.63;9.32;;;0.20;99.90;;;;;;4982060;28;20436;-60
2023/11/27 09:54:24;;;;;;;14.20;7.80;;;0.20;99.90;;;;;;4982684;28;20023;-59
2023/11/27 09:56:53;;;;;;;11.05;7.20;;;0.30;99.90;;;;;;4982402;28;20026;-59
2023/11/27 09:59:23;;;;;;;13.43;7.60;;;0.30;99.90;;;;;;4982526;28;20030;-59
2023/11/27 10:01:48;;;;;;;17.25;7.95;;;0.40;99.90;;;;;;4982292;28;20038;-59
2023/11/27 10:04:15;;;;;;;14.02;7.20;;;0.50;99.90;;;;;;4984254;28;20041;-60
2023/11/27 10:06:43;;;;;;;17.38;8.00;;;0.60;99.90;;;;;;4980963;28;20022;-60
2023/11/27 10:09:13;;;;;;;16.60;7.72;;;0.70;99.90;;;;;;4978362;28;20026;-60
2023/11/27 10:11:40;;;;;;;12.50;7.93;;;0.70;99.90;;;;;;4982122;28;20030;-60
2023/11/27 10:14:08;;;;;;;14.02;7.57;;;0.70;99.90;;;;;;4982051;28;20458;-59
2023/11/27 10:16:39;;;;;;;14.43;7.30;;;0.70;99.90;;;;;;4982147;28;20081;-59
2023/11/27 10:19:08;;;;;;;11.23;7.05;;;0.80;99.90;;;;;;4982092;28;20553;-59
2023/11/27 10:21:35;;;;;;;13.02;7.28;;;0.80;99.90;;;;;;4982047;28;20038;-60
2023/11/27 10:24:01;;;;;;;14.45;7.55;;;0.90;99.90;;;;;;4981887;28;20030;-60
2023/11/27 10:26:29;;;;;;;14.05;6.97;;;1.00;99.90;;;;;;4982018;28;20022;-60
2023/11/27 10:28:57;;;;;;;12.27;6.75;;;1.10;99.90;;;;;;4981645;28;20026;-59
2023/11/27 10:31:26;;;;;;;14.35;8.15;;;1.20;99.90;;;;;;4980448;28;20501;-59
2023/11/27 10:33:52;;;;;;;15.43;7.13;;;1.30;99.90;;;;;;4980648;28;20081;-59
2023/11/27 10:36:23;;;;;;;14.75;7.70;;;1.40;99.90;;;;;;4977493;28;20113;-59
2023/11/27 10:39:15;;;;;;;12.00;6.78;;;1.50;99.90;;;;;;4979871;28;20419;-59
2023/11/27 10:41:45;;;;;;;14.10;7.55;;;1.60;99.90;;;;;;4981704;28;20035;-60
2023/11/27 10:44:12;;;;;;;12.35;7.43;;;1.70;99.90;;;;;;4981438;28;20530;-59
2023/11/27 10:46:40;;;;;;;12.35;6.75;;;1.80;99.90;;;;;;4981652;28;20390;-60
2023/11/27 10:49:09;;;;;;;10.55;6.32;;;1.80;99.90;;;;;;4981433;28;20048;-59
2023/11/27 10:51:36;;;;;;;10.43;6.57;;;1.90;99.90;;;;;;4981678;28;20048;-60
2023/11/27 10:54:03;;;;;;;9.38;6.97;;;1.90;99.90;;;;;;4981625;28;20029;-60
2023/11/27 10:56:33;;;;;;;13.25;7.57;;;2.00;99.90;;;;;;4983063;28;20034;-60
2023/11/27 10:59:05;;;;;;;9.48;6.53;;;2.00;99.90;;;;;;4979494;28;20494;-60
2023/11/27 11:01:35;;;;;;;12.00;6.93;;;2.00;99.90;;;;;;4978263;28;20015;-60
2023/11/27 11:04:09;;;;;;;10.80;7.25;;;2.00;99.90;;;;;;4977106;28;20054;-59
2023/11/27 11:06:41;;;;;;;9.95;5.68;;;2.00;99.90;;;;;;4981146;28;20026;-59
2023/11/27 11:09:13;;;;;;;11.70;6.63;;;2.10;99.90;;;;;;4981373;28;20486;-60
2023/11/27 11:11:40;;;;;;;11.13;6.88;;;2.10;99.90;;;;;;4981271;28;20023;-60
2023/11/27 11:14:06;;;;;;;13.10;6.68;;;2.10;99.90;;;;;;4981023;28;20088;-59
2023/11/27 11:16:39;;;;;;;10.27;6.07;;;2.10;99.90;;;;;;4981141;28;20018;-59
2023/11/27 11:19:16;;;;;;;13.23;6.38;;;2.10;99.90;;;;;;4981136;28;20031;-59
2023/11/27 11:22:14;;;;;;;10.18;6.10;;;2.10;99.90;;;;;;4981125;28;20499;-60
2023/11/27 11:24:47;;;;;;;10.93;6.10;;;2.10;99.90;;;;;;4981171;28;20045;-59
2023/11/27 11:27:22;;;;;;;9.68;6.00;;;2.10;99.90;;;;;;4980574;28;20122;-60
2023/11/27 11:29:51;;;;;;;13.25;7.38;;;2.10;99.90;;;;;;4979818;28;20030;-59
2023/11/27 11:32:16;;;;;;;11.57;6.25;;;2.10;99.90;;;;;;4979533;28;20548;-59
2023/11/27 11:34:46;;;;;;;13.25;6.93;;;2.10;99.90;;;;;;4979221;28;20026;-59
2023/11/27 11:37:12;;;;;;;12.52;6.65;;;2.20;99.90;;;;;;4974802;28;20113;-60
2023/11/27 11:39:41;;;;;;;11.40;5.90;;;2.20;99.90;;;;;;4980979;28;20056;-60
2023/11/27 11:42:19;;;;;;;8.02;5.65;;;2.10;99.90;;;;;;4980482;28;20023;-60
2023/11/27 11:45:04;;;;;;;11.75;6.15;;;2.20;99.90;;;;;;4980349;28;20046;-59
2023/11/27 11:47:33;;;;;;;11.48;5.50;;;2.20;99.90;;;;;;4978869;28;20556;-60
2023/11/27 11:50:17;;;;;;;9.75;5.53;;;2.20;99.90;;;;;;4978911;28;20418;-60
2023/11/27 11:52:44;;;;;;;10.43;6.18;;;2.30;99.90;;;;;;4976406;28;20030;-59
2023/11/27 11:55:14;;;;;;;9.93;4.90;;;2.30;99.90;;;;;;4980525;28;20019;-59
2023/11/27 11:57:41;;;;;;;8.23;5.68;;;2.30;99.90;;;;;;4980153;28;20025;-59
2023/11/27 12:00:19;;;;;;;14.07;5.95;;;2.30;99.90;;;;;;4980323;28;20493;-59
2023/11/27 12:02:46;;;;;;;15.80;5.90;;;2.40;99.90;;;;;;4980364;28;20022;-60
2023/11/27 12:05:12;;;;;;;9.45;5.78;;;2.40;99.90;;;;;;4980258;28;20019;-60
2023/11/27 12:07:38;;;;;;;9.77;5.07;;;2.50;99.90;;;;;;4980263;28;20075;-59
2023/11/27 12:10:06;;;;;;;6.30;4.28;;;2.40;99.90;;;;;;4981812;28;20023;-60
2023/11/27 12:12:32;;;;;;;9.68;6.07;;;2.50;99.90;;;;;;4980015;28;20121;-59
2023/11/27 12:15:00;;;;;;;9.43;5.55;;;2.50;99.90;;;;;;4979913;28;20101;-60
2023/11/27 12:17:28;;;;;;;8.98;4.90;;;2.40;99.90;;;;;;4979879;28;20053;-60
2023/11/27 12:19:54;;;;;;;9.77;5.53;;;2.40;99.90;;;;;;4979991;28;20030;-59
2023/11/27 12:22:20;;;;;;;10.82;5.55;;;2.40;99.90;;;;;;4978664;28;20034;-59
2023/11/27 12:24:46;;;;;;;8.88;5.63;;;2.40;99.90;;;;;;4978580;28;20026;-59
2023/11/27 12:27:13;;;;;;;10.85;5.50;;;2.40;99.90;;;;;;4979915;28;20501;-61
2023/11/27 12:29:38;;;;;;;8.82;5.28;;;2.40;99.90;;;;;;4981607;28;20022;-60
2023/11/27 12:32:07;;;;;;;9.27;5.20;;;2.30;99.90;;;;;;4979739;28;20556;-60
2023/11/27 12:34:40;;;;;;;9.38;5.40;;;2.30;99.90;;;;;;4979912;28;20434;-60
2023/11/27 12:37:07;;;;;;;9.27;5.22;;;2.30;99.90;;;;;;4974587;28;20825;-60
2023/11/27 12:39:37;;;;;;;12.25;5.80;;;2.30;99.90;;;;;;4979680;28;20037;-60
2023/11/27 12:42:11;;;;;;;9.95;4.88;;;2.30;99.90;;;;;;4979618;28;20033;-60